sensor_id;sensor_type;location;lat;lon;timestamp;P1;durP1;ratioP1;P2;durP2;ratioP2
12888;SDS011;56848;49.896;11.424;2023-03-01T05:02:29;31.45;;;13.57;;
12888;SDS011;56848;49.896;11.424;2023-03-01T05:04:55;30.35;;;11.23;;
12888;SDS011;56848;49.896;11.424;2023-03-01T05:07:22;25.83;;;12.82;;
12888;SDS011;56848;49.896;11.424;2023-03-01T05:09:49;33.90;;;14.10;;
12888;SDS011;56848;49.896;11.424;2023-03-01T05:12:15;30.50;;;12.37;;
12888;SDS011;56848;49.896;11.424;2023-03-01T05:14:41;34.03;;;14.63;;
12888;SDS011;56848;49.896;11.424;2023-03-01T05:17:06;32.07;;;13.53;;
12888;SDS011;56848;49.896;11.424;2023-03-01T05:19:32;45.55;;;23.08;;
12888;SDS011;56848;49.896;11.424;2023-03-01T05:21:58;34.87;;;16.13;;
12888;SDS011;56848;49.896;11.424;2023-03-01T05:24:29;38.83;;;16.77;;
12888;SDS011;56848;49.896;11.424;2023-03-01T05:26:55;29.42;;;13.27;;
12888;SDS011;56848;49.896;11.424;2023-03-01T05:29:21;38.47;;;14.77;;
12888;SDS011;56848;49.896;11.424;2023-03-01T05:31:55;35.85;;;15.32;;
12888;SDS011;56848;49.896;11.424;2023-03-01T05:34:23;28.95;;;13.13;;
12888;SDS011;56848;49.896;11.424;2023-03-01T05:36:53;30.67;;;13.68;;
12888;SDS011;56848;49.896;11.424;2023-03-01T05:39:23;33.00;;;13.13;;
12888;SDS011;56848;49.896;11.424;2023-03-01T05:41:57;35.03;;;14.13;;
12888;SDS011;56848;49.896;11.424;2023-03-01T05:44:26;30.05;;;14.13;;
12888;SDS011;56848;49.896;11.424;2023-03-01T05:46:52;31.27;;;12.85;;
12888;SDS011;56848;49.896;11.424;2023-03-01T05:49:18;36.43;;;15.17;;
12888;SDS011;56848;49.896;11.424;2023-03-01T05:51:47;30.30;;;12.38;;
12888;SDS011;56848;49.896;11.424;2023-03-01T05:54:14;31.48;;;13.27;;
12888;SDS011;56848;49.896;11.424;2023-03-01T05:56:40;30.48;;;13.13;;
12888;SDS011;56848;49.896;11.424;2023-03-01T05:59:05;33.17;;;14.27;;
12888;SDS011;56848;49.896;11.424;2023-03-01T06:01:31;33.27;;;13.40;;
12888;SDS011;56848;49.896;11.424;2023-03-01T06:03:58;31.33;;;14.38;;
12888;SDS011;56848;49.896;11.424;2023-03-01T06:06:24;32.30;;;14.00;;
12888;SDS011;56848;49.896;11.424;2023-03-01T06:08:50;28.27;;;13.52;;
12888;SDS011;56848;49.896;11.424;2023-03-01T06:11:16;36.22;;;13.75;;
12888;SDS011;56848;49.896;11.424;2023-03-01T06:13:44;35.40;;;15.20;;
12888;SDS011;56848;49.896;11.424;2023-03-01T06:16:11;34.67;;;12.95;;
12888;SDS011;56848;49.896;11.424;2023-03-01T06:18:37;35.05;;;14.45;;
12888;SDS011;56848;49.896;11.424;2023-03-01T06:21:03;39.25;;;14.90;;
12888;SDS011;56848;49.896;11.424;2023-03-01T06:23:29;34.20;;;14.05;;
12888;SDS011;56848;49.896;11.424;2023-03-01T06:25:55;30.13;;;14.93;;
12888;SDS011;56848;49.896;11.424;2023-03-01T06:28:20;32.00;;;14.87;;
12888;SDS011;56848;49.896;11.424;2023-03-01T06:30:46;33.70;;;15.90;;
12888;SDS011;56848;49.896;11.424;2023-03-01T06:33:12;44.73;;;17.37;;
12888;SDS011;56848;49.896;11.424;2023-03-01T06:35:38;37.13;;;15.30;;
12888;SDS011;56848;49.896;11.424;2023-03-01T06:38:04;37.40;;;15.40;;
12888;SDS011;56848;49.896;11.424;2023-03-01T06:40:29;38.00;;;15.93;;
12888;SDS011;56848;49.896;11.424;2023-03-01T06:42:56;43.53;;;15.20;;
12888;SDS011;56848;49.896;11.424;2023-03-01T06:45:22;38.97;;;15.80;;
12888;SDS011;56848;49.896;11.424;2023-03-01T06:47:48;38.72;;;17.05;;
12888;SDS011;56848;49.896;11.424;2023-03-01T06:50:14;34.17;;;14.83;;
12888;SDS011;56848;49.896;11.424;2023-03-01T06:52:41;37.90;;;15.30;;
12888;SDS011;56848;49.896;11.424;2023-03-01T06:55:08;33.95;;;15.75;;
12888;SDS011;56848;49.896;11.424;2023-03-01T06:57:34;33.10;;;14.30;;
12888;SDS011;56848;49.896;11.424;2023-03-01T07:00:00;36.27;;;14.67;;
12888;SDS011;56848;49.896;11.424;2023-03-01T07:02:25;36.97;;;16.10;;
12888;SDS011;56848;49.896;11.424;2023-03-01T07:04:51;37.77;;;16.83;;
12888;SDS011;56848;49.896;11.424;2023-03-01T07:07:17;31.85;;;14.70;;
12888;SDS011;56848;49.896;11.424;2023-03-01T07:09:46;33.70;;;15.52;;
12888;SDS011;56848;49.896;11.424;2023-03-01T07:12:13;35.45;;;15.25;;
12888;SDS011;56848;49.896;11.424;2023-03-01T07:14:39;32.53;;;14.40;;
12888;SDS011;56848;49.896;11.424;2023-03-01T07:17:05;32.83;;;15.03;;
12888;SDS011;56848;49.896;11.424;2023-03-01T07:19:31;42.92;;;17.10;;
12888;SDS011;56848;49.896;11.424;2023-03-01T07:21:56;34.63;;;15.03;;
12888;SDS011;56848;49.896;11.424;2023-03-01T07:24:22;34.30;;;16.60;;
12888;SDS011;56848;49.896;11.424;2023-03-01T07:26:48;44.17;;;16.97;;
12888;SDS011;56848;49.896;11.424;2023-03-01T07:29:15;38.55;;;16.35;;
12888;SDS011;56848;49.896;11.424;2023-03-01T07:31:41;37.27;;;14.67;;
12888;SDS011;56848;49.896;11.424;2023-03-01T07:34:06;29.67;;;13.87;;
12888;SDS011;56848;49.896;11.424;2023-03-01T07:36:32;28.27;;;13.53;;
12888;SDS011;56848;49.896;11.424;2023-03-01T07:38:57;33.27;;;16.10;;
12888;SDS011;56848;49.896;11.424;2023-03-01T07:41:23;46.83;;;20.27;;
12888;SDS011;56848;49.896;11.424;2023-03-01T07:43:49;38.70;;;16.70;;
12888;SDS011;56848;49.896;11.424;2023-03-01T07:46:14;31.23;;;14.80;;
12888;SDS011;56848;49.896;11.424;2023-03-01T07:48:40;31.93;;;14.47;;
12888;SDS011;56848;49.896;11.424;2023-03-01T07:51:06;30.97;;;14.70;;
12888;SDS011;56848;49.896;11.424;2023-03-01T07:53:33;27.70;;;14.15;;
12888;SDS011;56848;49.896;11.424;2023-03-01T07:58:30;27.15;;;11.80;;
12888;SDS011;56848;49.896;11.424;2023-03-01T08:00:56;36.30;;;14.10;;
12888;SDS011;56848;49.896;11.424;2023-03-01T08:03:25;27.92;;;13.05;;
12888;SDS011;56848;49.896;11.424;2023-03-01T08:05:51;29.00;;;13.10;;
12888;SDS011;56848;49.896;11.424;2023-03-01T08:08:16;32.50;;;13.40;;
12888;SDS011;56848;49.896;11.424;2023-03-01T08:10:42;37.70;;;14.73;;
12888;SDS011;56848;49.896;11.424;2023-03-01T08:13:07;32.20;;;13.23;;
12888;SDS011;56848;49.896;11.424;2023-03-01T08:15:33;19.67;;;9.50;;
12888;SDS011;56848;49.896;11.424;2023-03-01T08:17:58;30.40;;;14.53;;
12888;SDS011;56848;49.896;11.424;2023-03-01T08:20:24;19.50;;;9.40;;
12888;SDS011;56848;49.896;11.424;2023-03-01T08:22:49;31.57;;;13.80;;
12888;SDS011;56848;49.896;11.424;2023-03-01T08:25:15;31.23;;;14.00;;
12888;SDS011;56848;49.896;11.424;2023-03-01T08:27:41;30.60;;;12.80;;
12888;SDS011;56848;49.896;11.424;2023-03-01T08:30:06;35.93;;;14.33;;
12888;SDS011;56848;49.896;11.424;2023-03-01T08:32:37;25.55;;;12.98;;
12888;SDS011;56848;49.896;11.424;2023-03-01T08:35:03;25.98;;;12.60;;
12888;SDS011;56848;49.896;11.424;2023-03-01T08:37:29;36.67;;;13.70;;
12888;SDS011;56848;49.896;11.424;2023-03-01T08:39:57;21.70;;;10.18;;
12888;SDS011;56848;49.896;11.424;2023-03-01T08:42:23;26.55;;;14.05;;
12888;SDS011;56848;49.896;11.424;2023-03-01T08:44:49;23.00;;;11.30;;
12888;SDS011;56848;49.896;11.424;2023-03-01T08:47:15;33.73;;;15.10;;
12888;SDS011;56848;49.896;11.424;2023-03-01T08:49:40;20.73;;;9.27;;
12888;SDS011;56848;49.896;11.424;2023-03-01T08:52:06;35.53;;;15.70;;
12888;SDS011;56848;49.896;11.424;2023-03-01T08:54:31;33.87;;;14.93;;
12888;SDS011;56848;49.896;11.424;2023-03-01T08:56:57;30.40;;;14.03;;
12888;SDS011;56848;49.896;11.424;2023-03-01T08:59:24;29.02;;;13.40;;
12888;SDS011;56848;49.896;11.424;2023-03-01T09:01:50;31.17;;;14.50;;
12888;SDS011;56848;49.896;11.424;2023-03-01T09:04:17;27.67;;;14.43;;
12888;SDS011;56848;49.896;11.424;2023-03-01T09:06:43;35.37;;;12.00;;
12888;SDS011;56848;49.896;11.424;2023-03-01T09:09:15;31.40;;;13.87;;
12888;SDS011;56848;49.896;11.424;2023-03-01T09:11:42;39.20;;;14.38;;
12888;SDS011;56848;49.896;11.424;2023-03-01T09:14:11;32.42;;;14.75;;
12888;SDS011;56848;49.896;11.424;2023-03-01T09:16:37;37.17;;;13.48;;
12888;SDS011;56848;49.896;11.424;2023-03-01T09:19:04;31.80;;;12.88;;
12888;SDS011;56848;49.896;11.424;2023-03-01T09:21:30;25.17;;;11.33;;
12888;SDS011;56848;49.896;11.424;2023-03-01T09:23:56;26.57;;;12.97;;
12888;SDS011;56848;49.896;11.424;2023-03-01T09:26:23;23.20;;;12.48;;
12888;SDS011;56848;49.896;11.424;2023-03-01T09:28:49;20.20;;;9.80;;
12888;SDS011;56848;49.896;11.424;2023-03-01T09:31:17;28.10;;;13.18;;
12888;SDS011;56848;49.896;11.424;2023-03-01T09:33:46;24.65;;;12.15;;
12888;SDS011;56848;49.896;11.424;2023-03-01T09:36:14;23.05;;;12.15;;
12888;SDS011;56848;49.896;11.424;2023-03-01T09:38:42;26.42;;;13.05;;
12888;SDS011;56848;49.896;11.424;2023-03-01T09:41:18;22.50;;;10.00;;
12888;SDS011;56848;49.896;11.424;2023-03-01T09:44:00;23.25;;;10.32;;
12888;SDS011;56848;49.896;11.424;2023-03-01T09:46:35;30.60;;;11.87;;
12888;SDS011;56848;49.896;11.424;2023-03-01T09:49:10;21.08;;;11.88;;
12888;SDS011;56848;49.896;11.424;2023-03-01T09:51:42;25.00;;;11.17;;
12888;SDS011;56848;49.896;11.424;2023-03-01T09:54:11;21.33;;;12.00;;
12888;SDS011;56848;49.896;11.424;2023-03-01T09:56:38;21.70;;;11.17;;
12888;SDS011;56848;49.896;11.424;2023-03-01T10:09:37;22.70;;;10.80;;
12888;SDS011;56848;49.896;11.424;2023-03-01T10:12:37;24.23;;;11.90;;
12888;SDS011;56848;49.896;11.424;2023-03-01T10:20:14;18.03;;;10.20;;
12888;SDS011;56848;49.896;11.424;2023-03-01T10:22:40;18.00;;;6.73;;
12888;SDS011;56848;49.896;11.424;2023-03-01T10:25:08;22.70;;;11.13;;
12888;SDS011;56848;49.896;11.424;2023-03-01T10:32:42;19.63;;;10.37;;
12888;SDS011;56848;49.896;11.424;2023-03-01T10:40:29;19.03;;;9.70;;
12888;SDS011;56848;49.896;11.424;2023-03-01T10:42:57;20.10;;;10.67;;
12888;SDS011;56848;49.896;11.424;2023-03-01T10:48:08;21.40;;;10.37;;
12888;SDS011;56848;49.896;11.424;2023-03-01T10:50:37;19.70;;;10.63;;
12888;SDS011;56848;49.896;11.424;2023-03-01T10:53:04;22.23;;;10.77;;
12888;SDS011;56848;49.896;11.424;2023-03-01T10:55:43;16.67;;;9.80;;
12888;SDS011;56848;49.896;11.424;2023-03-01T10:58:19;19.70;;;10.97;;
12888;SDS011;56848;49.896;11.424;2023-03-01T11:00:54;20.90;;;11.00;;
12888;SDS011;56848;49.896;11.424;2023-03-01T11:03:32;14.87;;;8.77;;
12888;SDS011;56848;49.896;11.424;2023-03-01T11:08:39;20.43;;;10.40;;
12888;SDS011;56848;49.896;11.424;2023-03-01T11:13:39;21.07;;;11.37;;
12888;SDS011;56848;49.896;11.424;2023-03-01T11:16:15;23.47;;;10.57;;
12888;SDS011;56848;49.896;11.424;2023-03-01T11:22:01;19.17;;;9.60;;
12888;SDS011;56848;49.896;11.424;2023-03-01T11:24:47;26.10;;;9.80;;
12888;SDS011;56848;49.896;11.424;2023-03-01T11:29:54;23.37;;;12.13;;
12888;SDS011;56848;49.896;11.424;2023-03-01T11:32:36;22.63;;;10.40;;
12888;SDS011;56848;49.896;11.424;2023-03-01T11:35:18;20.30;;;11.43;;
12888;SDS011;56848;49.896;11.424;2023-03-01T11:37:56;24.37;;;12.10;;
12888;SDS011;56848;49.896;11.424;2023-03-01T11:43:16;21.73;;;10.80;;
12888;SDS011;56848;49.896;11.424;2023-03-01T11:49:03;19.67;;;11.50;;
12888;SDS011;56848;49.896;11.424;2023-03-01T12:03:16;24.10;;;11.43;;
12888;SDS011;56848;49.896;11.424;2023-03-01T12:11:02;23.30;;;10.17;;
12888;SDS011;56848;49.896;11.424;2023-03-01T12:22:21;22.10;;;10.00;;
12888;SDS011;56848;49.896;11.424;2023-03-01T12:25:14;19.13;;;10.60;;
12888;SDS011;56848;49.896;11.424;2023-03-01T12:30:39;19.53;;;11.80;;
12888;SDS011;56848;49.896;11.424;2023-03-01T12:33:19;23.27;;;12.70;;
12888;SDS011;56848;49.896;11.424;2023-03-01T12:36:11;33.33;;;14.60;;
12888;SDS011;56848;49.896;11.424;2023-03-01T12:39:12;33.60;;;14.60;;
12888;SDS011;56848;49.896;11.424;2023-03-01T12:48:08;29.60;;;13.07;;
12888;SDS011;56848;49.896;11.424;2023-03-01T12:50:49;29.33;;;11.70;;
12888;SDS011;56848;49.896;11.424;2023-03-01T12:53:23;25.57;;;12.93;;
12888;SDS011;56848;49.896;11.424;2023-03-01T12:55:52;21.77;;;10.03;;
12888;SDS011;56848;49.896;11.424;2023-03-01T13:04:14;17.53;;;9.53;;
12888;SDS011;56848;49.896;11.424;2023-03-01T13:17:50;20.87;;;10.80;;
12888;SDS011;56848;49.896;11.424;2023-03-01T13:21:04;17.03;;;7.10;;
12888;SDS011;56848;49.896;11.424;2023-03-01T13:23:10;18.40;;;10.10;;
12888;SDS011;56848;49.896;11.424;2023-03-01T13:26:00;22.40;;;7.80;;
12888;SDS011;56848;49.896;11.424;2023-03-01T13:28:36;21.27;;;9.77;;
12888;SDS011;56848;49.896;11.424;2023-03-01T13:31:10;13.17;;;7.30;;
12888;SDS011;56848;49.896;11.424;2023-03-01T13:33:59;20.70;;;10.07;;
12888;SDS011;56848;49.896;11.424;2023-03-01T13:46:42;22.80;;;10.80;;
12888;SDS011;56848;49.896;11.424;2023-03-01T13:49:09;16.47;;;10.30;;
12888;SDS011;56848;49.896;11.424;2023-03-01T13:51:39;18.27;;;9.73;;
12888;SDS011;56848;49.896;11.424;2023-03-01T13:54:05;19.77;;;8.57;;
12888;SDS011;56848;49.896;11.424;2023-03-01T13:56:36;19.67;;;9.80;;
12888;SDS011;56848;49.896;11.424;2023-03-01T13:59:04;10.73;;;6.20;;
12888;SDS011;56848;49.896;11.424;2023-03-01T14:01:37;17.10;;;10.03;;
12888;SDS011;56848;49.896;11.424;2023-03-01T14:04:03;15.53;;;9.60;;
12888;SDS011;56848;49.896;11.424;2023-03-01T14:06:47;19.57;;;8.50;;
12888;SDS011;56848;49.896;11.424;2023-03-01T14:09:17;20.20;;;8.90;;
12888;SDS011;56848;49.896;11.424;2023-03-01T14:17:29;18.70;;;9.97;;
12888;SDS011;56848;49.896;11.424;2023-03-01T14:22:46;10.60;;;5.87;;
12888;SDS011;56848;49.896;11.424;2023-03-01T14:25:17;17.83;;;8.00;;
12888;SDS011;56848;49.896;11.424;2023-03-01T14:27:55;9.03;;;5.43;;
12888;SDS011;56848;49.896;11.424;2023-03-01T14:30:27;15.60;;;5.87;;
12888;SDS011;56848;49.896;11.424;2023-03-01T14:33:02;14.00;;;6.63;;
12888;SDS011;56848;49.896;11.424;2023-03-01T14:35:32;17.03;;;9.57;;
12888;SDS011;56848;49.896;11.424;2023-03-01T14:37:59;18.73;;;8.93;;
12888;SDS011;56848;49.896;11.424;2023-03-01T14:40:27;16.10;;;8.03;;
12888;SDS011;56848;49.896;11.424;2023-03-01T14:42:56;11.93;;;6.40;;
12888;SDS011;56848;49.896;11.424;2023-03-01T14:45:24;24.70;;;7.93;;
12888;SDS011;56848;49.896;11.424;2023-03-01T14:47:52;21.17;;;8.50;;
12888;SDS011;56848;49.896;11.424;2023-03-01T14:50:22;17.60;;;8.47;;
12888;SDS011;56848;49.896;11.424;2023-03-01T14:52:49;16.93;;;9.40;;
12888;SDS011;56848;49.896;11.424;2023-03-01T14:55:17;18.23;;;10.57;;
12888;SDS011;56848;49.896;11.424;2023-03-01T14:57:47;19.20;;;9.57;;
12888;SDS011;56848;49.896;11.424;2023-03-01T15:02:45;13.20;;;7.33;;
12888;SDS011;56848;49.896;11.424;2023-03-01T15:05:14;10.97;;;7.20;;
12888;SDS011;56848;49.896;11.424;2023-03-01T15:07:41;17.20;;;6.50;;
12888;SDS011;56848;49.896;11.424;2023-03-01T15:10:19;17.60;;;8.10;;
12888;SDS011;56848;49.896;11.424;2023-03-01T15:12:47;17.70;;;9.23;;
12888;SDS011;56848;49.896;11.424;2023-03-01T15:15:33;21.93;;;9.80;;
12888;SDS011;56848;49.896;11.424;2023-03-01T15:18:12;18.60;;;7.60;;
12888;SDS011;56848;49.896;11.424;2023-03-01T15:20:41;12.80;;;6.10;;
12888;SDS011;56848;49.896;11.424;2023-03-01T15:23:16;14.90;;;4.90;;
12888;SDS011;56848;49.896;11.424;2023-03-01T15:25:45;13.10;;;7.17;;
12888;SDS011;56848;49.896;11.424;2023-03-01T15:28:12;18.90;;;10.10;;
12888;SDS011;56848;49.896;11.424;2023-03-01T15:30:45;24.23;;;10.87;;
12888;SDS011;56848;49.896;11.424;2023-03-01T15:35:58;22.57;;;10.27;;
12888;SDS011;56848;49.896;11.424;2023-03-01T15:40:54;15.03;;;7.43;;
12888;SDS011;56848;49.896;11.424;2023-03-01T15:43:38;14.37;;;5.40;;
12888;SDS011;56848;49.896;11.424;2023-03-01T15:46:15;29.00;;;11.33;;
12888;SDS011;56848;49.896;11.424;2023-03-01T15:48:47;20.77;;;10.30;;
12888;SDS011;56848;49.896;11.424;2023-03-01T15:51:17;15.87;;;9.10;;
12888;SDS011;56848;49.896;11.424;2023-03-01T15:53:45;21.73;;;8.23;;
12888;SDS011;56848;49.896;11.424;2023-03-01T15:56:16;20.83;;;9.90;;
12888;SDS011;56848;49.896;11.424;2023-03-01T15:58:42;17.40;;;9.93;;
12888;SDS011;56848;49.896;11.424;2023-03-01T16:01:11;24.47;;;11.17;;
12888;SDS011;56848;49.896;11.424;2023-03-01T16:03:39;23.80;;;10.83;;
12888;SDS011;56848;49.896;11.424;2023-03-01T16:06:04;22.83;;;8.80;;
12888;SDS011;56848;49.896;11.424;2023-03-01T16:08:30;31.97;;;14.57;;
12888;SDS011;56848;49.896;11.424;2023-03-01T16:10:56;30.60;;;13.60;;
12888;SDS011;56848;49.896;11.424;2023-03-01T16:13:21;26.00;;;13.20;;
12888;SDS011;56848;49.896;11.424;2023-03-01T16:15:47;35.53;;;14.00;;
12888;SDS011;56848;49.896;11.424;2023-03-01T16:18:12;23.60;;;10.60;;
12888;SDS011;56848;49.896;11.424;2023-03-01T16:20:39;30.57;;;12.40;;
12888;SDS011;56848;49.896;11.424;2023-03-01T16:23:06;18.13;;;9.60;;
12888;SDS011;56848;49.896;11.424;2023-03-01T16:25:32;31.43;;;13.40;;
12888;SDS011;56848;49.896;11.424;2023-03-01T16:27:59;25.17;;;11.55;;
12888;SDS011;56848;49.896;11.424;2023-03-01T16:30:28;27.80;;;10.03;;
12888;SDS011;56848;49.896;11.424;2023-03-01T16:32:54;27.53;;;11.80;;
12888;SDS011;56848;49.896;11.424;2023-03-01T16:35:20;25.97;;;11.70;;
12888;SDS011;56848;49.896;11.424;2023-03-01T16:37:46;22.87;;;12.07;;
12888;SDS011;56848;49.896;11.424;2023-03-01T16:40:16;29.30;;;13.10;;
12888;SDS011;56848;49.896;11.424;2023-03-01T16:42:47;40.37;;;15.70;;
12888;SDS011;56848;49.896;11.424;2023-03-01T16:45:13;43.63;;;17.00;;
12888;SDS011;56848;49.896;11.424;2023-03-01T16:47:38;40.00;;;16.47;;
12888;SDS011;56848;49.896;11.424;2023-03-01T16:50:04;32.17;;;14.87;;
12888;SDS011;56848;49.896;11.424;2023-03-01T16:52:30;33.67;;;15.20;;
12888;SDS011;56848;49.896;11.424;2023-03-01T16:54:55;27.77;;;11.90;;
12888;SDS011;56848;49.896;11.424;2023-03-01T16:57:22;19.33;;;8.05;;
12888;SDS011;56848;49.896;11.424;2023-03-01T16:59:47;22.73;;;9.87;;
12888;SDS011;56848;49.896;11.424;2023-03-01T17:02:19;15.75;;;7.95;;
12888;SDS011;56848;49.896;11.424;2023-03-01T17:04:51;28.58;;;11.80;;
12888;SDS011;56848;49.896;11.424;2023-03-01T17:07:18;24.83;;;11.73;;
12888;SDS011;56848;49.896;11.424;2023-03-01T17:09:43;28.80;;;12.97;;
12888;SDS011;56848;49.896;11.424;2023-03-01T17:12:11;25.47;;;12.90;;
12888;SDS011;56848;49.896;11.424;2023-03-01T17:14:37;24.92;;;12.30;;
12888;SDS011;56848;49.896;11.424;2023-03-01T17:17:06;30.77;;;14.95;;
12888;SDS011;56848;49.896;11.424;2023-03-01T17:19:32;30.48;;;13.35;;
12888;SDS011;56848;49.896;11.424;2023-03-01T17:21:58;26.95;;;13.80;;
12888;SDS011;56848;49.896;11.424;2023-03-01T17:24:25;32.20;;;11.10;;
12888;SDS011;56848;49.896;11.424;2023-03-01T17:26:50;31.67;;;11.50;;
12888;SDS011;56848;49.896;11.424;2023-03-01T17:29:16;24.70;;;10.23;;
12888;SDS011;56848;49.896;11.424;2023-03-01T17:31:42;18.77;;;9.00;;
12888;SDS011;56848;49.896;11.424;2023-03-01T17:34:08;30.40;;;12.97;;
12888;SDS011;56848;49.896;11.424;2023-03-01T17:36:34;27.53;;;12.83;;
12888;SDS011;56848;49.896;11.424;2023-03-01T17:39:07;21.27;;;9.43;;
12888;SDS011;56848;49.896;11.424;2023-03-01T17:41:34;19.77;;;9.45;;
12888;SDS011;56848;49.896;11.424;2023-03-01T17:43:59;22.30;;;9.07;;
12888;SDS011;56848;49.896;11.424;2023-03-01T17:46:25;10.70;;;5.20;;
12888;SDS011;56848;49.896;11.424;2023-03-01T17:48:51;28.20;;;12.50;;
12888;SDS011;56848;49.896;11.424;2023-03-01T17:51:16;27.37;;;12.03;;
12888;SDS011;56848;49.896;11.424;2023-03-01T17:53:43;8.65;;;4.03;;
12888;SDS011;56848;49.896;11.424;2023-03-01T17:56:08;15.43;;;7.53;;
12888;SDS011;56848;49.896;11.424;2023-03-01T17:58:35;23.67;;;12.60;;
12888;SDS011;56848;49.896;11.424;2023-03-01T18:01:36;25.25;;;13.45;;
12888;SDS011;56848;49.896;11.424;2023-03-01T18:03:54;26.60;;;10.35;;
12888;SDS011;56848;49.896;11.424;2023-03-01T18:06:21;33.63;;;16.13;;
12888;SDS011;56848;49.896;11.424;2023-03-01T18:08:51;23.73;;;12.20;;
12888;SDS011;56848;49.896;11.424;2023-03-01T18:11:19;27.48;;;15.27;;
12888;SDS011;56848;49.896;11.424;2023-03-01T18:13:49;33.95;;;15.05;;
12888;SDS011;56848;49.896;11.424;2023-03-01T18:16:16;33.33;;;14.88;;
12888;SDS011;56848;49.896;11.424;2023-03-01T18:18:43;29.27;;;15.70;;
12888;SDS011;56848;49.896;11.424;2023-03-01T18:21:11;34.17;;;15.70;;
12888;SDS011;56848;49.896;11.424;2023-03-01T18:23:38;39.13;;;15.77;;
12888;SDS011;56848;49.896;11.424;2023-03-01T18:26:05;31.42;;;15.82;;
12888;SDS011;56848;49.896;11.424;2023-03-01T18:28:33;28.27;;;15.40;;
12888;SDS011;56848;49.896;11.424;2023-03-01T18:30:59;31.23;;;15.77;;
12888;SDS011;56848;49.896;11.424;2023-03-01T18:33:27;35.75;;;14.70;;
12888;SDS011;56848;49.896;11.424;2023-03-01T18:35:54;31.70;;;15.43;;
12888;SDS011;56848;49.896;11.424;2023-03-01T18:38:19;36.23;;;15.57;;
12888;SDS011;56848;49.896;11.424;2023-03-01T18:40:45;36.63;;;16.40;;
12888;SDS011;56848;49.896;11.424;2023-03-01T18:43:11;31.73;;;15.43;;
12888;SDS011;56848;49.896;11.424;2023-03-01T18:45:36;35.40;;;15.27;;
12888;SDS011;56848;49.896;11.424;2023-03-01T18:48:02;37.27;;;16.80;;
12888;SDS011;56848;49.896;11.424;2023-03-01T18:50:28;35.60;;;15.50;;
12888;SDS011;56848;49.896;11.424;2023-03-01T18:52:54;39.10;;;15.30;;
12888;SDS011;56848;49.896;11.424;2023-03-01T18:55:20;37.17;;;16.23;;
12888;SDS011;56848;49.896;11.424;2023-03-01T18:57:45;36.93;;;15.50;;
12888;SDS011;56848;49.896;11.424;2023-03-01T19:00:11;37.47;;;14.47;;
12888;SDS011;56848;49.896;11.424;2023-03-01T19:02:37;43.13;;;17.48;;
12888;SDS011;56848;49.896;11.424;2023-03-01T19:05:03;41.63;;;18.07;;
12888;SDS011;56848;49.896;11.424;2023-03-01T19:07:29;44.83;;;17.10;;
12888;SDS011;56848;49.896;11.424;2023-03-01T19:09:55;35.13;;;16.58;;
12888;SDS011;56848;49.896;11.424;2023-03-01T19:12:21;31.03;;;14.83;;
12888;SDS011;56848;49.896;11.424;2023-03-01T19:14:46;40.00;;;15.10;;
12888;SDS011;56848;49.896;11.424;2023-03-01T19:17:12;35.83;;;16.17;;
12888;SDS011;56848;49.896;11.424;2023-03-01T19:19:38;40.57;;;17.30;;
12888;SDS011;56848;49.896;11.424;2023-03-01T19:22:03;30.37;;;15.60;;
12888;SDS011;56848;49.896;11.424;2023-03-01T19:24:31;36.45;;;16.60;;
12888;SDS011;56848;49.896;11.424;2023-03-01T19:26:58;39.78;;;17.95;;
12888;SDS011;56848;49.896;11.424;2023-03-01T19:29:23;40.17;;;16.53;;
12888;SDS011;56848;49.896;11.424;2023-03-01T19:31:49;37.93;;;16.87;;
12888;SDS011;56848;49.896;11.424;2023-03-01T19:34:15;42.17;;;17.57;;
12888;SDS011;56848;49.896;11.424;2023-03-01T19:36:41;36.50;;;17.20;;
12888;SDS011;56848;49.896;11.424;2023-03-01T19:39:07;38.17;;;17.92;;
12888;SDS011;56848;49.896;11.424;2023-03-01T19:41:34;47.80;;;21.08;;
12888;SDS011;56848;49.896;11.424;2023-03-01T19:43:59;54.90;;;21.60;;
12888;SDS011;56848;49.896;11.424;2023-03-01T19:46:29;47.08;;;18.45;;
12888;SDS011;56848;49.896;11.424;2023-03-01T19:48:56;44.53;;;19.65;;
12888;SDS011;56848;49.896;11.424;2023-03-01T19:51:24;42.08;;;16.52;;
12888;SDS011;56848;49.896;11.424;2023-03-01T19:53:50;36.75;;;17.58;;
12888;SDS011;56848;49.896;11.424;2023-03-01T19:56:16;28.83;;;14.30;;
12888;SDS011;56848;49.896;11.424;2023-03-01T19:58:41;31.30;;;10.97;;
12888;SDS011;56848;49.896;11.424;2023-03-01T20:01:18;38.95;;;17.50;;
12888;SDS011;56848;49.896;11.424;2023-03-01T20:03:45;29.70;;;13.40;;
12888;SDS011;56848;49.896;11.424;2023-03-01T20:06:13;24.58;;;10.75;;
12888;SDS011;56848;49.896;11.424;2023-03-01T20:08:44;31.92;;;14.23;;
12888;SDS011;56848;49.896;11.424;2023-03-01T20:11:11;33.77;;;15.10;;
12888;SDS011;56848;49.896;11.424;2023-03-01T20:13:38;32.83;;;12.98;;
12888;SDS011;56848;49.896;11.424;2023-03-01T20:16:04;22.20;;;7.57;;
12888;SDS011;56848;49.896;11.424;2023-03-01T20:18:30;14.30;;;6.68;;
12888;SDS011;56848;49.896;11.424;2023-03-01T20:20:57;36.63;;;14.30;;
12888;SDS011;56848;49.896;11.424;2023-03-01T20:23:23;27.23;;;11.65;;
12888;SDS011;56848;49.896;11.424;2023-03-01T20:25:49;25.67;;;13.60;;
12888;SDS011;56848;49.896;11.424;2023-03-01T20:28:16;31.85;;;14.30;;
12888;SDS011;56848;49.896;11.424;2023-03-01T20:30:43;35.75;;;14.13;;
12888;SDS011;56848;49.896;11.424;2023-03-01T20:33:09;32.05;;;11.73;;
12888;SDS011;56848;49.896;11.424;2023-03-01T20:35:35;32.10;;;14.00;;
12888;SDS011;56848;49.896;11.424;2023-03-01T20:38:04;42.15;;;12.85;;
12888;SDS011;56848;49.896;11.424;2023-03-01T20:40:30;33.10;;;15.90;;
12888;SDS011;56848;49.896;11.424;2023-03-01T20:42:56;39.93;;;16.40;;
12888;SDS011;56848;49.896;11.424;2023-03-01T20:45:22;36.47;;;16.10;;
12888;SDS011;56848;49.896;11.424;2023-03-01T20:47:49;29.23;;;14.77;;
12888;SDS011;56848;49.896;11.424;2023-03-01T20:50:16;36.03;;;15.68;;
12888;SDS011;56848;49.896;11.424;2023-03-01T20:52:42;36.92;;;16.10;;
12888;SDS011;56848;49.896;11.424;2023-03-01T20:55:08;32.87;;;15.73;;
12888;SDS011;56848;49.896;11.424;2023-03-01T20:57:34;39.03;;;16.15;;
12888;SDS011;56848;49.896;11.424;2023-03-01T20:59:59;37.07;;;15.90;;
12888;SDS011;56848;49.896;11.424;2023-03-01T21:02:25;29.90;;;14.13;;
12888;SDS011;56848;49.896;11.424;2023-03-01T21:04:51;33.83;;;15.43;;
12888;SDS011;56848;49.896;11.424;2023-03-01T21:07:16;27.80;;;12.97;;
12888;SDS011;56848;49.896;11.424;2023-03-01T21:09:42;32.20;;;14.20;;
12888;SDS011;56848;49.896;11.424;2023-03-01T21:12:09;25.13;;;11.43;;
12888;SDS011;56848;49.896;11.424;2023-03-01T21:14:35;35.40;;;13.20;;
12888;SDS011;56848;49.896;11.424;2023-03-01T21:17:09;28.95;;;11.95;;
12888;SDS011;56848;49.896;11.424;2023-03-01T21:19:37;24.25;;;12.75;;
12888;SDS011;56848;49.896;11.424;2023-03-01T21:22:05;35.38;;;13.85;;
12888;SDS011;56848;49.896;11.424;2023-03-01T21:24:31;34.33;;;14.17;;
12888;SDS011;56848;49.896;11.424;2023-03-01T21:26:57;33.77;;;14.40;;